createdAt,value
2018-02-23T00:00:37.781Z,61.42
2018-02-23T00:03:06.945Z,62.53
2018-02-23T00:05:35.296Z,65.63
2018-02-23T00:08:03.635Z,59.37
2018-02-23T00:10:32.766Z,58.63
2018-02-23T00:13:01.086Z,65.33
2018-02-23T00:15:29.432Z,58.90
2018-02-23T00:17:58.376Z,68.10
2018-02-23T00:20:26.706Z,58.73
2018-02-23T00:22:55.041Z,67.57
2018-02-23T00:25:23.394Z,68.03
2018-02-23T00:27:51.712Z,72.77
2018-02-23T00:30:20.144Z,62.73
2018-02-23T00:32:48.474Z,69.23
2018-02-23T00:35:17.612Z,64.40
2018-02-23T00:37:46.034Z,69.47
2018-02-23T00:40:14.424Z,74.73
2018-02-23T00:42:43.122Z,74.25
2018-02-23T00:45:11.522Z,69.97
2018-02-23T00:47:39.859Z,70.03
2018-02-23T00:50:08.178Z,78.07
2018-02-23T00:52:37.300Z,70.27
2018-02-23T00:55:05.698Z,75.40
2018-02-23T00:57:34.042Z,73.37
2018-02-23T01:00:03.154Z,78.87
2018-02-23T01:02:32.266Z,71.73
2018-02-23T01:05:01.368Z,74.33
2018-02-23T01:07:29.768Z,71.90
2018-02-23T01:09:58.138Z,71.13
2018-02-23T01:12:26.476Z,80.90
2018-02-23T01:14:54.862Z,78.63
2018-02-23T01:17:24.023Z,71.20
2018-02-23T01:19:52.403Z,82.03
2018-02-23T01:22:20.817Z,79.63
2018-02-23T01:24:49.145Z,80.93
2018-02-23T01:27:17.484Z,81.50
2018-02-23T01:29:45.825Z,84.10
2018-02-23T01:32:14.183Z,78.40
2018-02-23T01:34:42.528Z,80.27
2018-02-23T01:37:11.651Z,88.67
2018-02-23T01:39:40.012Z,77.63
2018-02-23T01:42:08.380Z,85.93
2018-02-23T01:44:36.714Z,88.80
2018-02-23T01:47:05.089Z,80.77
2018-02-23T01:49:33.483Z,79.03
2018-02-23T01:52:01.844Z,86.03
2018-02-23T01:54:30.266Z,84.87
2018-02-23T01:56:58.655Z,84.97
2018-02-23T01:59:27.054Z,88.10
2018-02-23T02:01:55.408Z,76.50
2018-02-23T02:04:23.737Z,95.10
2018-02-23T02:06:52.878Z,90.67
2018-02-23T02:09:21.272Z,84.50
2018-02-23T02:11:49.610Z,85.20
2018-02-23T02:14:17.960Z,93.73
2018-02-23T02:16:46.320Z,88.97
2018-02-23T02:19:14.679Z,91.33
2018-02-23T02:21:43.022Z,94.83
2018-02-23T02:24:12.156Z,89.67
2018-02-23T02:26:40.462Z,84.57
2018-02-23T02:29:08.807Z,84.93
2018-02-23T02:31:37.115Z,94.30
2018-02-23T02:34:05.604Z,99.57
2018-02-23T02:36:34.718Z,98.50
2018-02-23T02:39:03.068Z,93.93
2018-02-23T02:41:31.433Z,100.67
2018-02-23T02:43:59.790Z,96.73
2018-02-23T02:46:28.940Z,94.50
2018-02-23T02:48:57.328Z,96.90
2018-02-23T02:51:25.647Z,91.70
2018-02-23T02:53:54.762Z,101.23
2018-02-23T02:56:23.135Z,103.93
2018-02-23T02:58:52.260Z,100.87
2018-02-23T03:01:20.627Z,98.17
2018-02-23T03:03:49.030Z,97.83
2018-02-23T03:06:17.454Z,103.47
2018-02-23T03:08:45.849Z,105.23
2018-02-23T03:11:15.056Z,115.43
2018-02-23T03:13:43.576Z,104.60
2018-02-23T03:16:11.959Z,107.77
2018-02-23T03:18:40.286Z,114.07
2018-02-23T03:21:08.653Z,104.70
2018-02-23T03:23:37.791Z,113.27
2018-02-23T03:26:06.187Z,111.87
2018-02-23T03:28:34.536Z,108.90
2018-02-23T03:31:02.875Z,105.47
2018-02-23T03:33:31.230Z,113.17
2018-02-23T03:35:59.649Z,104.60
2018-02-23T03:38:27.996Z,107.50
2018-02-23T03:40:56.340Z,104.80
2018-02-23T03:43:24.979Z,106.83
2018-02-23T03:45:53.456Z,106.30
2018-02-23T03:48:21.830Z,108.07
2018-02-23T03:50:50.270Z,118.13
2018-02-23T03:53:18.663Z,102.37
2018-02-23T03:55:47.044Z,99.20
2018-02-23T03:58:15.389Z,104.77
2018-02-23T04:00:43.992Z,118.33
2018-02-23T04:03:12.428Z,118.67
2018-02-23T04:05:40.808Z,110.75
2018-02-23T04:08:09.228Z,110.53
2018-02-23T04:10:37.588Z,105.27
2018-02-23T04:13:06.030Z,99.73
2018-02-23T04:15:34.400Z,111.23
2018-02-23T04:18:02.748Z,108.30
2018-02-23T04:20:31.076Z,117.28
2018-02-23T04:23:00.248Z,97.17
2018-02-23T04:25:28.622Z,107.50
2018-02-23T04:27:57.014Z,119.33
2018-02-23T04:30:25.464Z,103.62
2018-02-23T04:32:54.623Z,109.33
2018-02-23T04:35:23.738Z,105.50
2018-02-23T04:37:52.060Z,104.10
2018-02-23T04:40:20.384Z,107.63
2018-02-23T04:42:49.464Z,102.57
2018-02-23T04:45:17.794Z,109.32
2018-02-23T04:47:46.102Z,100.68
2018-02-23T04:50:14.417Z,99.57
2018-02-23T04:52:43.496Z,97.50
2018-02-23T04:55:11.810Z,104.93
2018-02-23T04:57:40.889Z,108.80
2018-02-23T05:00:09.216Z,110.05
2018-02-23T05:02:37.537Z,96.40
2018-02-23T05:05:05.858Z,82.50
2018-02-23T05:07:34.176Z,96.27
2018-02-23T05:10:02.497Z,96.65
2018-02-23T05:12:31.592Z,108.13
2018-02-23T05:14:59.923Z,118.23
2018-02-23T05:17:28.247Z,103.93
2018-02-23T05:19:56.560Z,89.90
2018-02-23T05:22:24.882Z,93.43
2018-02-23T05:24:53.190Z,94.43
2018-02-23T05:27:21.544Z,93.67
2018-02-23T05:29:49.904Z,99.10
2018-02-23T05:32:18.228Z,97.97
2018-02-23T05:34:46.619Z,89.57
2018-02-23T05:37:14.980Z,96.00
2018-02-23T05:39:43.303Z,86.70
2018-02-23T05:42:11.733Z,95.03
2018-02-23T05:44:40.060Z,92.47
2018-02-23T05:47:09.141Z,82.10
2018-02-23T05:49:37.468Z,76.57
2018-02-23T05:52:05.778Z,91.63
2018-02-23T05:54:34.134Z,78.20
2018-02-23T05:57:02.454Z,87.03
2018-02-23T05:59:30.784Z,85.17
2018-02-23T06:01:59.100Z,91.53
2018-02-23T06:04:27.448Z,94.90
2018-02-23T06:06:55.775Z,81.27
2018-02-23T06:09:24.114Z,88.68
2018-02-23T06:11:52.430Z,92.77
2018-02-23T06:14:20.774Z,90.77
2018-02-23T06:16:49.111Z,89.40
2018-02-23T06:19:24.344Z,88.95
2018-02-23T06:21:52.673Z,82.32
2018-02-23T06:24:21.003Z,79.93
2018-02-23T06:26:49.319Z,72.70
2018-02-23T06:29:17.640Z,76.73
2018-02-23T06:31:46.044Z,71.50
2018-02-23T06:34:14.383Z,68.97
2018-02-23T06:36:42.698Z,62.55
2018-02-23T06:39:11.020Z,71.90
2018-02-23T06:41:39.399Z,70.60
2018-02-23T06:44:07.729Z,77.90
2018-02-23T06:46:36.044Z,63.80
2018-02-23T06:49:05.157Z,59.33
2018-02-23T06:51:34.337Z,59.03
2018-02-23T06:54:03.572Z,60.63
2018-02-23T06:56:31.903Z,58.73
2018-02-23T06:59:00.245Z,58.30
2018-02-23T07:01:28.597Z,54.33
2018-02-23T07:03:57.722Z,54.20
2018-02-23T07:06:26.056Z,65.30
2018-02-23T07:08:54.466Z,50.73
2018-02-23T07:11:23.543Z,55.97
2018-02-23T07:13:52.628Z,55.47
2018-02-23T07:16:21.662Z,52.20
2018-02-23T07:18:49.994Z,54.90
2018-02-23T07:21:18.341Z,56.90
2018-02-23T07:23:46.656Z,57.50
2018-02-23T07:26:14.987Z,56.60
2018-02-23T07:28:43.300Z,57.07
2018-02-23T07:31:11.607Z,60.17
2018-02-23T07:33:39.962Z,66.00
2018-02-23T07:36:08.287Z,71.13
2018-02-23T07:38:37.402Z,66.10
2018-02-23T07:41:06.493Z,75.37
2018-02-23T07:43:35.637Z,67.50
2018-02-23T07:46:05.739Z,61.80
2018-02-23T07:48:34.053Z,63.00
2018-02-23T07:51:02.374Z,64.77
2018-02-23T07:53:31.469Z,58.80
2018-02-23T07:56:00.617Z,56.97
2018-02-23T07:58:28.972Z,56.87
2018-02-23T08:00:57.285Z,58.60
2018-02-23T08:03:25.624Z,57.97
2018-02-23T08:05:54.074Z,53.80
2018-02-23T08:08:22.419Z,52.77
2018-02-23T08:10:50.891Z,54.23
2018-02-23T08:13:19.189Z,54.93
2018-02-23T08:15:47.499Z,52.70
2018-02-23T08:18:15.833Z,55.33
2018-02-23T08:20:44.128Z,52.43
2018-02-23T08:23:12.603Z,52.97
2018-02-23T08:25:40.999Z,53.83
2018-02-23T08:28:09.301Z,48.00
2018-02-23T08:30:37.667Z,50.27
2018-02-23T08:33:05.998Z,54.13
2018-02-23T08:35:35.125Z,51.73
2018-02-23T08:38:03.470Z,48.83
2018-02-23T08:40:32.607Z,50.83
2018-02-23T08:43:01.086Z,55.03
2018-02-23T08:45:29.486Z,55.73
2018-02-23T08:47:57.849Z,56.53
2018-02-23T08:50:26.205Z,53.90
2018-02-23T08:52:55.399Z,47.17
2018-02-23T08:55:23.731Z,49.97
2018-02-23T08:57:52.184Z,53.30
2018-02-23T09:00:21.257Z,59.30
2018-02-23T09:02:50.391Z,53.87
2018-02-23T09:05:19.077Z,52.47
2018-02-23T09:07:47.413Z,51.33
2018-02-23T09:10:16.677Z,58.03
2018-02-23T09:12:45.061Z,46.30
2018-02-23T09:15:13.390Z,48.77
2018-02-23T09:17:42.461Z,53.90
2018-02-23T09:20:10.848Z,51.37
2018-02-23T09:22:39.235Z,51.00
2018-02-23T09:25:07.561Z,45.60
2018-02-23T09:27:35.997Z,46.73
2018-02-23T09:30:04.382Z,42.37
2018-02-23T09:32:39.904Z,44.40
2018-02-23T09:35:08.250Z,35.87
2018-02-23T09:37:36.575Z,39.00
2018-02-23T09:40:04.897Z,42.20
2018-02-23T09:42:33.984Z,36.70
2018-02-23T09:45:03.053Z,39.57
2018-02-23T09:47:31.377Z,34.77
2018-02-23T09:50:00.463Z,36.57
2018-02-23T09:52:29.561Z,36.97
2018-02-23T09:54:58.689Z,35.63
2018-02-23T09:57:27.012Z,34.53
2018-02-23T09:59:55.339Z,34.00
2018-02-23T10:02:23.733Z,33.80
2018-02-23T10:04:52.112Z,37.07
2018-02-23T10:07:20.467Z,34.90
2018-02-23T10:09:49.534Z,31.70
2018-02-23T10:12:17.927Z,33.13
2018-02-23T10:14:46.235Z,34.50
2018-02-23T10:17:15.343Z,35.07
2018-02-23T10:19:43.706Z,35.70
2018-02-23T10:22:12.798Z,37.53
2018-02-23T10:24:41.143Z,44.63
2018-02-23T10:27:09.484Z,34.33
2018-02-23T10:29:37.819Z,32.70
2018-02-23T10:32:06.160Z,34.17
2018-02-23T10:34:34.549Z,35.03
2018-02-23T10:37:02.854Z,37.53
2018-02-23T10:39:31.515Z,34.43
2018-02-23T10:41:59.817Z,47.33
2018-02-23T10:44:28.196Z,35.73
2018-02-23T10:46:56.523Z,30.67
2018-02-23T10:49:25.613Z,34.70
2018-02-23T10:51:53.953Z,39.73
2018-02-23T10:54:22.271Z,32.57
2018-02-23T10:56:50.634Z,33.37
2018-02-23T10:59:18.965Z,33.43
2018-02-23T11:01:47.275Z,31.00
2018-02-23T11:04:16.477Z,28.40
2018-02-23T11:06:44.767Z,27.60
2018-02-23T11:09:13.091Z,26.67
2018-02-23T11:11:42.154Z,24.47
2018-02-23T11:14:10.599Z,23.50
2018-02-23T11:16:38.944Z,24.23
2018-02-23T11:19:08.051Z,20.60
2018-02-23T11:21:37.387Z,19.03
2018-02-23T11:24:05.688Z,17.23
2018-02-23T11:26:33.994Z,18.00
2018-02-23T11:29:03.009Z,20.90
2018-02-23T11:31:32.104Z,17.70
2018-02-23T11:34:01.237Z,19.63
2018-02-23T11:36:29.552Z,17.23
2018-02-23T11:38:57.869Z,15.73
2018-02-23T11:41:26.951Z,14.80
2018-02-23T11:43:55.379Z,18.00
2018-02-23T11:46:23.965Z,19.17
2018-02-23T11:48:52.288Z,17.00
2018-02-23T11:51:20.603Z,15.93
2018-02-23T11:53:49.820Z,15.83
2018-02-23T11:56:18.165Z,15.47
2018-02-23T11:58:46.638Z,16.47
2018-02-23T12:01:15.033Z,17.73
2018-02-23T12:03:43.340Z,15.73
2018-02-23T12:06:11.657Z,18.37
2018-02-23T12:08:40.114Z,18.10
2018-02-23T12:11:08.480Z,16.17
2018-02-23T12:13:37.841Z,19.87
2018-02-23T12:16:06.391Z,17.07
2018-02-23T12:18:34.689Z,16.10
2018-02-23T12:21:03.039Z,15.90
2018-02-23T12:23:32.254Z,17.30
2018-02-23T12:26:00.593Z,16.90
2018-02-23T12:28:28.972Z,16.40
2018-02-23T12:30:59.611Z,16.40
2018-02-23T12:33:28.953Z,15.20
2018-02-23T12:35:57.713Z,17.30
2018-02-23T12:38:26.812Z,15.73
2018-02-23T12:40:55.903Z,16.77
2018-02-23T12:43:24.223Z,15.90
2018-02-23T12:45:52.529Z,15.40
2018-02-23T12:48:20.870Z,18.20
2018-02-23T12:50:49.220Z,16.67
2018-02-23T12:53:17.532Z,16.63
2018-02-23T12:55:45.849Z,19.03
2018-02-23T12:58:14.916Z,16.93
2018-02-23T13:00:43.556Z,18.63
2018-02-23T13:03:11.874Z,18.70
2018-02-23T13:05:40.229Z,19.00
2018-02-23T13:08:08.594Z,17.47
2018-02-23T13:10:36.930Z,19.33
2018-02-23T13:13:05.339Z,19.57
2018-02-23T13:15:33.680Z,17.43
2018-02-23T13:18:02.018Z,18.40
2018-02-23T13:20:30.335Z,17.27
2018-02-23T13:22:59.410Z,17.67
2018-02-23T13:25:27.738Z,17.30
2018-02-23T13:28:01.635Z,17.43
2018-02-23T13:30:30.720Z,19.20
2018-02-23T13:32:59.815Z,17.17
2018-02-23T13:35:28.940Z,16.53
2018-02-23T13:37:57.258Z,17.17
2018-02-23T13:40:25.966Z,16.13
2018-02-23T13:42:54.302Z,16.77
2018-02-23T13:45:23.502Z,15.80
2018-02-23T13:47:51.826Z,16.87
2018-02-23T13:50:20.150Z,16.97
2018-02-23T13:52:48.494Z,15.50
2018-02-23T13:55:16.827Z,15.93
2018-02-23T13:57:45.266Z,14.30
2018-02-23T14:00:13.636Z,16.10
2018-02-23T14:02:42.432Z,15.47
2018-02-23T14:05:10.755Z,16.67
2018-02-23T14:07:39.154Z,16.77
2018-02-23T14:10:07.492Z,16.53
2018-02-23T14:12:36.604Z,17.33
2018-02-23T14:15:04.943Z,18.60
2018-02-23T14:17:33.357Z,16.77
2018-02-23T14:20:02.481Z,16.40
2018-02-23T14:22:30.860Z,16.07
2018-02-23T14:24:59.239Z,15.60
2018-02-23T14:27:27.573Z,16.20
2018-02-23T14:29:55.891Z,18.23
2018-02-23T14:32:24.213Z,15.60
2018-02-23T14:34:52.517Z,16.87
2018-02-23T14:37:21.802Z,17.97
2018-02-23T14:39:50.202Z,17.00
2018-02-23T14:42:19.173Z,19.23
2018-02-23T14:44:47.484Z,18.07
2018-02-23T14:47:17.097Z,16.70
2018-02-23T14:50:03.007Z,17.70
2018-02-23T14:52:32.191Z,16.10
2018-02-23T14:55:01.284Z,17.50
2018-02-23T14:57:30.363Z,17.73
2018-02-23T14:59:58.717Z,16.63
2018-02-23T15:02:27.051Z,17.93
2018-02-23T15:04:56.124Z,17.03
2018-02-23T15:07:24.502Z,17.57
2018-02-23T15:09:52.850Z,17.93
2018-02-23T15:12:21.167Z,17.40
2018-02-23T15:14:49.487Z,18.00
2018-02-23T15:17:17.814Z,20.03
2018-02-23T15:19:46.161Z,18.60
2018-02-23T15:22:14.633Z,16.43
2018-02-23T15:24:42.945Z,18.67
2018-02-23T15:27:11.293Z,16.07
2018-02-23T15:29:39.618Z,17.20
2018-02-23T15:32:38.595Z,16.83
2018-02-23T15:35:08.420Z,17.30
2018-02-23T15:37:36.730Z,16.87
2018-02-23T15:40:05.877Z,17.10
2018-02-23T15:42:34.192Z,16.57
2018-02-23T15:45:02.512Z,17.87
2018-02-23T15:47:34.169Z,17.40
2018-02-23T15:50:09.222Z,15.10
2018-02-23T15:52:37.829Z,16.73
2018-02-23T15:55:06.180Z,16.17
2018-02-23T15:57:34.544Z,17.90
2018-02-23T16:00:02.912Z,16.93
2018-02-23T16:02:32.045Z,16.43
2018-02-23T16:05:00.422Z,16.40
2018-02-23T16:07:28.766Z,15.60
2018-02-23T16:09:57.886Z,14.67
2018-02-23T16:12:26.977Z,15.67
2018-02-23T16:14:56.088Z,14.33
2018-02-23T16:17:24.401Z,14.83
2018-02-23T16:19:52.767Z,15.40
2018-02-23T16:22:21.087Z,15.03
2018-02-23T16:24:49.414Z,16.00
2018-02-23T16:27:17.744Z,14.30
2018-02-23T16:29:46.097Z,15.90
2018-02-23T16:32:14.426Z,14.80
2018-02-23T16:34:42.752Z,17.03
2018-02-23T16:37:11.124Z,16.07
2018-02-23T16:39:40.526Z,120.20
2018-02-23T16:42:09.083Z,15.17
2018-02-23T16:44:38.204Z,12.80
2018-02-23T16:47:06.601Z,13.30
2018-02-23T16:49:34.941Z,12.70
2018-02-23T16:52:04.059Z,16.90
2018-02-23T16:54:32.399Z,13.30
2018-02-23T16:57:01.489Z,16.80
2018-02-23T16:59:29.844Z,12.13
2018-02-23T17:02:00.452Z,17.70
2018-02-23T17:04:28.842Z,18.20
2018-02-23T17:06:57.996Z,14.60
2018-02-23T17:09:27.873Z,11.67
2018-02-23T17:11:56.224Z,14.43
2018-02-23T17:14:25.571Z,15.57
2018-02-23T17:16:53.888Z,20.83
2018-02-23T17:19:22.366Z,14.97
2018-02-23T17:21:50.758Z,21.87
2018-02-23T17:24:19.865Z,18.07
2018-02-23T17:26:49.816Z,35.93
2018-02-23T17:29:18.344Z,44.17
2018-02-23T17:31:48.225Z,23.90
2018-02-23T17:34:16.799Z,60.03
2018-02-23T17:36:45.946Z,21.33
2018-02-23T17:39:14.381Z,19.93
2018-02-23T17:41:42.698Z,13.10
2018-02-23T17:44:11.123Z,15.10
2018-02-23T17:46:39.453Z,15.40
2018-02-23T17:49:08.227Z,14.97
2018-02-23T17:51:36.716Z,13.30
2018-02-23T17:54:05.701Z,13.03
2018-02-23T17:56:34.106Z,12.67
2018-02-23T17:59:02.426Z,15.43
2018-02-23T18:01:30.767Z,15.37
2018-02-23T18:03:59.196Z,14.60
2018-02-23T18:06:27.565Z,13.80
2018-02-23T18:08:55.940Z,13.47
2018-02-23T18:11:24.400Z,12.23
2018-02-23T18:13:53.647Z,11.97
2018-02-23T18:16:22.038Z,10.93
2018-02-23T18:18:58.011Z,9.60
2018-02-23T18:21:26.594Z,12.50
2018-02-23T18:23:54.924Z,9.67
2018-02-23T18:26:23.294Z,11.33
2018-02-23T18:28:51.613Z,9.27
2018-02-23T18:31:20.756Z,10.13
2018-02-23T18:33:49.140Z,15.37
2018-02-23T18:36:17.461Z,11.37
2018-02-23T18:38:45.820Z,12.00
2018-02-23T18:41:14.174Z,9.40
2018-02-23T18:43:42.532Z,10.60
2018-02-23T18:46:10.920Z,10.80
2018-02-23T18:48:39.342Z,11.10
2018-02-23T18:51:09.008Z,11.37
2018-02-23T18:53:38.862Z,12.73
2018-02-23T18:56:07.182Z,11.27
2018-02-23T18:58:35.516Z,10.90
2018-02-23T19:01:03.852Z,10.13
2018-02-23T19:03:32.931Z,11.47
2018-02-23T19:06:01.740Z,11.83
2018-02-23T19:08:30.840Z,12.90
2018-02-23T19:10:59.174Z,11.13
2018-02-23T19:13:27.511Z,9.30
2018-02-23T19:15:56.624Z,10.10
2018-02-23T19:18:24.926Z,11.30
2018-02-23T19:20:53.252Z,14.00
2018-02-23T19:23:22.388Z,11.10
2018-02-23T19:25:50.701Z,10.57
2018-02-23T19:28:19.037Z,13.13
2018-02-23T19:30:48.135Z,12.53
2018-02-23T19:33:18.014Z,15.17
2018-02-23T19:35:46.330Z,15.53
2018-02-23T19:38:14.698Z,15.30
2018-02-23T19:40:43.796Z,14.43
2018-02-23T19:43:12.207Z,11.63
2018-02-23T19:45:40.558Z,11.60
2018-02-23T19:48:09.710Z,12.63
2018-02-23T19:50:38.136Z,15.03
2018-02-23T19:53:07.214Z,12.63
2018-02-23T19:55:35.557Z,12.20
2018-02-23T19:58:03.877Z,13.60
2018-02-23T20:00:32.892Z,14.67
2018-02-23T20:03:02.083Z,16.67
2018-02-23T20:05:30.503Z,14.07
2018-02-23T20:07:58.868Z,14.17
2018-02-23T20:10:27.950Z,15.17
2018-02-23T20:12:57.137Z,13.77
2018-02-23T20:15:26.317Z,14.55
2018-02-23T20:17:55.433Z,17.02
2018-02-23T20:20:23.789Z,17.33
2018-02-23T20:22:52.282Z,16.37
2018-02-23T20:25:20.626Z,15.27
2018-02-23T20:27:49.025Z,17.60
2018-02-23T20:30:17.491Z,16.90
2018-02-23T20:32:45.888Z,16.73
2018-02-23T20:35:14.397Z,16.13
2018-02-23T20:37:43.295Z,16.97
2018-02-23T20:40:11.730Z,21.13
2018-02-23T20:42:40.086Z,21.17
2018-02-23T20:45:08.448Z,19.80
2018-02-23T20:47:37.830Z,18.50
2018-02-23T20:50:06.236Z,18.47
2018-02-23T20:52:34.581Z,20.63
2018-02-23T20:55:03.346Z,13.83
2018-02-23T20:57:31.711Z,22.50
2018-02-23T21:00:00.926Z,18.43
2018-02-23T21:02:29.500Z,20.87
2018-02-23T21:04:57.960Z,22.73
2018-02-23T21:07:26.391Z,22.77
2018-02-23T21:09:54.739Z,20.63
2018-02-23T21:12:23.856Z,17.87
2018-02-23T21:14:52.998Z,22.50
2018-02-23T21:17:21.329Z,23.50
2018-02-23T21:19:50.425Z,23.70
2018-02-23T21:22:20.364Z,23.17
2018-02-23T21:24:48.749Z,21.67
2018-02-23T21:27:17.154Z,22.90
2018-02-23T21:29:45.478Z,20.88
2018-02-23T21:32:13.820Z,22.87
2018-02-23T21:34:42.155Z,19.83
2018-02-23T21:37:11.276Z,24.40
2018-02-23T21:39:39.626Z,27.53
2018-02-23T21:42:07.996Z,24.27
2018-02-23T21:44:47.730Z,26.45
2018-02-23T21:47:16.096Z,23.40
2018-02-23T21:49:44.431Z,26.67
2018-02-23T21:52:12.842Z,29.53
2018-02-23T21:54:41.218Z,25.05
2018-02-23T21:57:10.417Z,25.27
2018-02-23T21:59:38.794Z,25.80
2018-02-23T22:02:07.142Z,24.17
2018-02-23T22:04:36.256Z,23.77
2018-02-23T22:07:04.662Z,25.35
2018-02-23T22:09:33.006Z,21.05
2018-02-23T22:12:02.119Z,29.67
2018-02-23T22:14:30.505Z,35.10
2018-02-23T22:16:58.870Z,21.98
2018-02-23T22:19:27.939Z,25.50
2018-02-23T22:21:57.133Z,19.62
2018-02-23T22:24:25.524Z,19.80
2018-02-23T22:26:53.904Z,20.70
2018-02-23T22:29:22.232Z,21.83
2018-02-23T22:31:50.558Z,25.47
2018-02-23T22:34:18.866Z,25.10
2018-02-23T22:36:47.998Z,20.20
2018-02-23T22:39:16.993Z,26.60
2018-02-23T22:41:46.029Z,27.87
2018-02-23T22:44:15.809Z,27.17
2018-02-23T22:46:44.196Z,26.60
2018-02-23T22:49:12.697Z,25.13
2018-02-23T22:51:41.046Z,24.50
2018-02-23T22:54:09.403Z,26.77
2018-02-23T22:56:37.808Z,29.30
2018-02-23T22:59:06.195Z,22.73
2018-02-23T23:01:34.549Z,27.98
2018-02-23T23:04:04.261Z,27.10
2018-02-23T23:06:33.367Z,26.27
2018-02-23T23:09:02.544Z,30.67
2018-02-23T23:11:31.891Z,25.47
2018-02-23T23:14:00.282Z,22.90
2018-02-23T23:16:28.740Z,24.13
2018-02-23T23:18:57.833Z,26.05
2018-02-23T23:21:26.977Z,29.12
2018-02-23T23:23:56.033Z,26.27
2018-02-23T23:26:24.399Z,20.30
2018-02-23T23:28:53.492Z,31.73
2018-02-23T23:31:22.618Z,22.48
2018-02-23T23:33:50.982Z,22.60
2018-02-23T23:36:20.168Z,26.55
2018-02-23T23:38:48.541Z,23.97
2018-02-23T23:41:16.932Z,24.83
2018-02-23T23:43:46.113Z,24.27
2018-02-23T23:46:14.485Z,27.10
2018-02-23T23:48:43.453Z,28.83
2018-02-23T23:51:11.868Z,24.70
2018-02-23T23:53:40.238Z,25.25
2018-02-23T23:56:08.660Z,27.57
2018-02-23T23:58:37.044Z,24.75
